Time;durP1;ratioP1;P1;durP2;ratioP2;P2;SDS_P1;SDS_P2;PMS_P1;PMS_P2;Temp;Humidity;BMP_temperature;BMP_pressure;BME280_temperature;BME280_humidity;BME280_pressure;Samples;Min_cycle;Max_cycle;Signal;HPM_P1;HPM_P2
2023/10/05 00:01:07;;;;;;;5.82;1.60;;;13.30;99.90;;;;;;5110587;27;20039;-64
2023/10/05 00:03:38;;;;;;;6.13;1.83;;;13.30;99.90;;;;;;5106802;27;20501;-64
2023/10/05 00:06:24;;;;;;;6.78;1.90;;;13.30;99.90;;;;;;5112709;27;20054;-64
2023/10/05 00:08:55;;;;;;;6.50;1.92;;;13.30;99.90;;;;;;5110842;28;20141;-64
2023/10/05 00:11:24;;;;;;;9.07;1.70;;;13.30;99.90;;;;;;5107279;28;20062;-64
2023/10/05 00:13:57;;;;;;;6.68;2.22;;;13.30;99.90;;;;;;5110771;28;20043;-63
2023/10/05 00:16:23;;;;;;;;;;;13.30;99.90;;;;;;5094098;28;20050;-63
2023/10/05 00:18:52;;;;;;;8.18;1.63;;;13.30;99.90;;;;;;5112444;28;19920;-64
2023/10/05 00:21:21;;;;;;;7.88;1.83;;;13.30;99.90;;;;;;5093842;28;20044;-63
2023/10/05 00:23:54;;;;;;;6.78;1.67;;;13.30;99.90;;;;;;5111086;28;20043;-63
2023/10/05 00:26:20;;;;;;;;;;;13.30;99.90;;;;;;5111371;28;20140;-64
2023/10/05 00:29:00;;;;;;;9.10;1.90;;;13.40;99.90;;;;;;5093182;28;20415;-63
2023/10/05 00:31:26;;;;;;;7.82;1.67;;;13.40;99.90;;;;;;5110506;28;20045;-63
2023/10/05 00:33:55;;;;;;;10.20;1.88;;;13.30;99.90;;;;;;5111999;28;20434;-63
2023/10/05 00:36:25;;;;;;;5.05;1.50;;;13.40;99.90;;;;;;5093977;28;20067;-63
2023/10/05 00:38:51;;;;;;;6.68;1.98;;;13.40;99.90;;;;;;5110447;28;20039;-64
2023/10/05 00:41:17;;;;;;;5.55;1.60;;;13.40;99.90;;;;;;5104131;28;20047;-64
2023/10/05 00:43:46;;;;;;;6.40;1.60;;;13.40;99.90;;;;;;5083159;28;20063;-64
2023/10/05 00:46:12;;;;;;;6.72;1.73;;;13.40;99.90;;;;;;5091192;28;20040;-62
2023/10/05 00:48:54;;;;;;;8.75;2.15;;;13.40;99.90;;;;;;5093438;28;20077;-64
2023/10/05 00:51:26;;;;;;;9.10;1.70;;;13.40;99.90;;;;;;5092257;28;20066;-62
2023/10/05 00:53:53;;;;;;;10.00;1.80;;;13.40;99.90;;;;;;5074255;28;20770;-64
2023/10/05 00:56:23;;;;;;;8.50;2.75;;;13.40;99.90;;;;;;5091671;28;20051;-63
2023/10/05 00:58:51;;;;;;;7.22;1.67;;;13.40;99.90;;;;;;5099267;28;20165;-62
2023/10/05 01:01:22;;;;;;;5.82;1.88;;;13.40;99.90;;;;;;5094343;28;20046;-62
2023/10/05 01:06:49;;;;;;;10.80;1.83;;;13.50;99.90;;;;;;5093111;28;20150;-64
2023/10/05 01:12:17;;;;;;;7.03;1.73;;;13.50;99.90;;;;;;5093097;28;20419;-64
2023/10/05 01:15:05;;;;;;;10.02;1.70;;;13.60;99.90;;;;;;5093895;28;20048;-62
2023/10/05 01:17:31;;;;;;;6.80;1.90;;;13.60;99.90;;;;;;5093132;28;20055;-64
2023/10/05 01:20:07;;;;;;;9.18;1.70;;;13.60;99.90;;;;;;5095207;28;20667;-63
2023/10/05 01:22:34;;;;;;;8.38;1.95;;;13.60;99.90;;;;;;5093143;28;20149;-63
2023/10/05 01:25:02;;;;;;;6.18;1.60;;;13.60;99.90;;;;;;5093416;28;20043;-64
2023/10/05 01:27:31;;;;;;;6.25;1.70;;;13.60;99.90;;;;;;5097102;28;20043;-64
2023/10/05 01:29:57;;;;;;;8.43;1.80;;;13.60;99.90;;;;;;5094797;28;20144;-63
2023/10/05 01:32:23;;;;;;;8.93;1.88;;;13.60;99.90;;;;;;5094081;28;21093;-64
2023/10/05 01:34:50;;;;;;;4.07;1.52;;;13.50;99.90;;;;;;5093378;28;20035;-62
2023/10/05 01:37:23;;;;;;;7.05;1.52;;;13.60;99.90;;;;;;5096404;28;20036;-63
2023/10/05 01:39:49;;;;;;;6.03;1.63;;;13.50;99.90;;;;;;5094694;28;20467;-63
2023/10/05 01:42:16;;;;;;;8.18;2.08;;;13.50;99.90;;;;;;5098096;28;20444;-64
2023/10/05 01:44:47;;;;;;;7.38;1.73;;;13.50;99.90;;;;;;5095947;28;20508;-63
2023/10/05 01:47:17;;;;;;;8.93;1.80;;;13.40;99.90;;;;;;5093751;28;20062;-63
2023/10/05 01:49:45;;;;;;;7.75;2.00;;;13.40;99.90;;;;;;5077460;28;20040;-63
2023/10/05 01:52:11;;;;;;;5.43;1.67;;;13.40;99.90;;;;;;5093725;28;20867;-63
2023/10/05 01:54:37;;;;;;;6.78;2.67;;;13.30;99.90;;;;;;5096310;28;20036;-65
2023/10/05 01:57:09;;;;;;;4.65;2.00;;;13.30;99.90;;;;;;5096374;28;20039;-62
2023/10/05 01:59:36;;;;;;;;;;;13.30;99.90;;;;;;5094714;28;20122;-63
2023/10/05 02:02:04;;;;;;;7.30;1.73;;;13.40;99.90;;;;;;5076814;28;19931;-64
2023/10/05 02:04:31;;;;;;;5.53;1.75;;;13.30;99.90;;;;;;5095171;28;20122;-64
2023/10/05 02:06:56;;;;;;;7.20;1.73;;;13.30;99.90;;;;;;5094427;28;20044;-64
2023/10/05 02:09:22;;;;;;;7.57;2.08;;;13.30;99.90;;;;;;5093754;28;20096;-65
2023/10/05 02:11:49;;;;;;;6.78;1.75;;;13.40;99.90;;;;;;5115977;27;20039;-64
2023/10/05 02:14:16;;;;;;;9.57;1.83;;;13.30;99.90;;;;;;5082727;28;20423;-64
2023/10/05 02:16:46;;;;;;;7.45;1.80;;;13.30;99.90;;;;;;5101565;28;20674;-62
2023/10/05 02:19:14;;;;;;;4.15;1.60;;;13.30;99.90;;;;;;5098337;28;20053;-63
2023/10/05 02:21:40;;;;;;;5.03;1.98;;;13.30;99.90;;;;;;5100194;28;20042;-62
2023/10/05 02:24:16;;;;;;;5.38;1.83;;;13.30;99.90;;;;;;5097427;28;20306;-64
2023/10/05 02:29:24;;;;;;;11.23;1.87;;;13.20;99.90;;;;;;5097718;28;20051;-63
2023/10/05 02:31:56;;;;;;;7.70;1.70;;;13.20;99.90;;;;;;5097658;28;20470;-62
2023/10/05 02:34:22;;;;;;;10.68;2.28;;;13.20;99.90;;;;;;5098696;27;20527;-64
2023/10/05 02:36:50;;;;;;;7.60;2.00;;;13.20;99.90;;;;;;5118141;27;20043;-63
2023/10/05 02:39:16;;;;;;;4.10;1.55;;;13.20;99.90;;;;;;5101188;27;20039;-64
2023/10/05 02:41:43;;;;;;;7.45;2.08;;;13.20;99.90;;;;;;5119589;27;20107;-62
2023/10/05 02:44:18;;;;;;;8.43;2.33;;;13.20;99.90;;;;;;5105499;27;20054;-63
2023/10/05 02:46:47;;;;;;;9.88;2.10;;;13.20;99.90;;;;;;5101045;27;20039;-63
2023/10/05 02:49:15;;;;;;;7.60;2.45;;;13.20;99.90;;;;;;5083238;27;20126;-63
2023/10/05 02:51:43;;;;;;;9.07;2.03;;;13.10;99.90;;;;;;5101751;27;20039;-63
2023/10/05 02:54:10;;;;;;;8.05;2.13;;;13.20;99.90;;;;;;5083340;27;20051;-63
2023/10/05 02:56:39;;;;;;;10.50;2.38;;;13.20;99.90;;;;;;5101450;27;20051;-63
2023/10/05 02:59:08;;;;;;;12.02;2.25;;;13.20;99.90;;;;;;5108128;27;20076;-63
2023/10/05 03:01:37;;;;;;;5.85;2.35;;;13.20;99.90;;;;;;5112011;27;20070;-63
2023/10/05 03:04:09;;;;;;;6.50;1.95;;;13.10;99.90;;;;;;5118163;27;20042;-64
2023/10/05 03:06:35;;;;;;;;;;;13.20;99.90;;;;;;5102015;27;20039;-63
2023/10/05 03:09:07;;;;;;;10.32;2.05;;;13.20;99.90;;;;;;5110742;27;19930;-62
2023/10/05 03:11:39;;;;;;;10.50;2.73;;;13.20;99.90;;;;;;5078720;28;20065;-62
2023/10/05 03:14:09;;;;;;;6.80;2.08;;;13.20;99.90;;;;;;5097291;28;20490;-64
2023/10/05 03:16:43;;;;;;;12.40;2.50;;;13.10;99.90;;;;;;5099145;28;20566;-63
2023/10/05 03:19:15;;;;;;;10.20;2.13;;;13.20;99.90;;;;;;5095480;28;20050;-64
2023/10/05 03:21:45;;;;;;;;;;;13.20;99.90;;;;;;5096490;28;20525;-63
2023/10/05 03:24:13;;;;;;;10.80;2.30;;;13.20;99.90;;;;;;5095826;28;19922;-63
2023/10/05 03:26:40;;;;;;;5.57;1.90;;;13.20;99.90;;;;;;5094690;28;20078;-63
2023/10/05 03:29:07;;;;;;;7.57;2.80;;;13.20;99.90;;;;;;5096436;28;20039;-64
2023/10/05 03:31:37;;;;;;;10.18;2.17;;;13.20;99.90;;;;;;5098354;27;20655;-63
2023/10/05 03:34:07;;;;;;;6.18;2.03;;;13.20;99.90;;;;;;5095044;28;20043;-64
2023/10/05 03:36:33;;;;;;;9.57;2.05;;;13.20;99.90;;;;;;5096368;28;20039;-63
2023/10/05 03:39:07;;;;;;;10.25;3.10;;;13.20;99.90;;;;;;5097741;28;20042;-64
2023/10/05 03:41:35;;;;;;;7.13;2.22;;;13.20;99.90;;;;;;5096258;28;20059;-64
2023/10/05 03:44:07;;;;;;;9.05;2.38;;;13.20;99.90;;;;;;5096871;28;20074;-65
2023/10/05 03:46:35;;;;;;;6.85;2.10;;;13.20;99.90;;;;;;5080080;28;20047;-64
2023/10/05 03:49:06;;;;;;;6.75;2.17;;;13.20;99.90;;;;;;5078606;28;20131;-64
2023/10/05 03:51:33;;;;;;;6.85;1.95;;;13.20;99.90;;;;;;5095368;28;20047;-64
2023/10/05 03:53:59;;;;;;;9.75;2.70;;;13.20;99.90;;;;;;5095474;28;20065;-63
2023/10/05 03:56:27;;;;;;;6.25;2.25;;;13.20;99.90;;;;;;5095156;28;20032;-63
2023/10/05 03:58:54;;;;;;;8.93;2.50;;;13.10;99.90;;;;;;5096830;28;20078;-63
2023/10/05 04:01:22;;;;;;;9.00;2.35;;;13.10;99.90;;;;;;5095031;28;20377;-64
2023/10/05 04:03:50;;;;;;;9.25;2.13;;;13.10;99.90;;;;;;5095296;28;20055;-63
2023/10/05 04:06:17;;;;;;;7.55;2.25;;;13.10;99.90;;;;;;5097331;28;20046;-64
2023/10/05 04:08:54;;;;;;;6.13;2.13;;;13.10;99.90;;;;;;5094700;28;20422;-62
2023/10/05 04:11:21;;;;;;;7.50;1.90;;;13.10;99.90;;;;;;5077934;28;20048;-63
2023/10/05 04:13:49;;;;;;;9.32;2.17;;;13.10;99.90;;;;;;5077723;28;20163;-63
2023/10/05 04:16:28;;;;;;;5.95;2.08;;;13.10;99.90;;;;;;5111979;27;20069;-65
2023/10/05 04:18:54;;;;;;;7.50;2.00;;;13.00;99.90;;;;;;5094186;28;20425;-64
2023/10/05 04:21:23;;;;;;;8.80;2.10;;;13.00;99.90;;;;;;5097304;28;20035;-64
2023/10/05 04:23:58;;;;;;;8.25;2.00;;;13.10;99.90;;;;;;5104016;27;20562;-64
2023/10/05 04:26:33;;;;;;;9.07;1.90;;;13.00;99.90;;;;;;5096268;28;20039;-62
2023/10/05 04:29:04;;;;;;;8.65;2.20;;;13.10;99.90;;;;;;5077067;28;20134;-63
2023/10/05 04:31:32;;;;;;;5.25;1.88;;;13.00;99.90;;;;;;5103148;27;20077;-63
2023/10/05 04:34:00;;;;;;;8.60;2.25;;;13.00;99.90;;;;;;5094180;28;20055;-62
2023/10/05 04:36:26;;;;;;;8.57;2.33;;;13.00;99.90;;;;;;5094426;28;20040;-64
2023/10/05 04:38:56;;;;;;;11.52;2.97;;;13.00;99.90;;;;;;5099434;28;20050;-63
2023/10/05 04:41:33;;;;;;;5.70;2.08;;;13.00;99.90;;;;;;5094127;28;20137;-65
2023/10/05 04:44:00;;;;;;;9.15;2.03;;;13.00;99.90;;;;;;5077697;28;20054;-64
2023/10/05 04:46:30;;;;;;;12.00;2.28;;;12.90;99.90;;;;;;5094043;28;20050;-63
2023/10/05 04:48:56;;;;;;;12.43;2.45;;;12.90;99.90;;;;;;5095597;28;20128;-63
2023/10/05 04:51:31;;;;;;;11.10;2.65;;;12.90;99.90;;;;;;5086386;28;20164;-64
2023/10/05 04:53:59;;;;;;;6.38;2.47;;;12.90;99.90;;;;;;5098509;28;20076;-64
2023/10/05 05:07:02;;;;;;;11.30;2.17;;;12.90;99.90;;;;;;5093708;28;21186;-66
2023/10/05 05:09:34;;;;;;;11.30;2.65;;;12.90;99.90;;;;;;5097147;28;20119;-63
2023/10/05 05:12:06;;;;;;;10.70;2.63;;;13.00;99.90;;;;;;5076678;28;20050;-65
2023/10/05 05:14:41;;;;;;;9.98;2.75;;;13.00;99.90;;;;;;5075930;28;20867;-64
2023/10/05 05:17:11;;;;;;;12.90;2.42;;;13.00;99.90;;;;;;5094062;28;20040;-65
2023/10/05 05:19:41;;;;;;;12.73;2.58;;;13.10;99.90;;;;;;5095259;28;20092;-63
2023/10/05 05:22:08;;;;;;;13.02;3.05;;;13.00;99.90;;;;;;5094264;28;20050;-62
2023/10/05 05:24:35;;;;;;;8.18;2.20;;;13.10;99.90;;;;;;5099579;28;20100;-63
2023/10/05 05:27:10;;;;;;;7.72;2.15;;;13.00;99.90;;;;;;5102295;27;20044;-64
2023/10/05 05:29:36;;;;;;;10.55;2.25;;;13.00;99.90;;;;;;5109717;27;20555;-62
2023/10/05 05:32:12;;;;;;;10.52;2.55;;;13.00;99.90;;;;;;5092266;28;20418;-65
2023/10/05 05:34:41;;;;;;;10.18;2.58;;;13.10;99.90;;;;;;5093562;28;20089;-64
2023/10/05 05:39:55;;;;;;;9.27;2.33;;;13.10;99.90;;;;;;5093167;28;20129;-65
2023/10/05 05:42:25;;;;;;;10.65;2.47;;;13.10;99.90;;;;;;5076840;28;20415;-63
2023/10/05 05:44:52;;;;;;;10.57;2.55;;;13.10;99.90;;;;;;5096916;28;20046;-64
2023/10/05 05:47:18;;;;;;;10.60;2.13;;;13.10;99.90;;;;;;5105559;28;20043;-64
2023/10/05 05:49:47;;;;;;;10.52;2.65;;;13.10;99.90;;;;;;5092507;28;20991;-63
2023/10/05 05:52:14;;;;;;;9.65;2.17;;;13.20;99.90;;;;;;5090075;28;21659;-65
2023/10/05 05:54:41;;;;;;;11.43;3.10;;;13.10;99.90;;;;;;5088823;28;20137;-64
2023/10/05 05:57:07;;;;;;;10.27;2.67;;;13.10;99.90;;;;;;5101706;27;20204;-64
2023/10/05 05:59:40;;;;;;;12.30;2.28;;;13.10;99.90;;;;;;5088841;28;20058;-65
2023/10/05 06:02:10;;;;;;;5.53;1.77;;;13.20;99.90;;;;;;5082493;28;20032;-63
2023/10/05 06:04:41;;;;;;;8.30;2.00;;;13.20;99.90;;;;;;5084617;28;20047;-63
2023/10/05 06:07:13;;;;;;;13.88;2.70;;;13.20;99.90;;;;;;5082191;28;20081;-65
2023/10/05 06:09:45;;;;;;;7.60;2.25;;;13.20;99.90;;;;;;5094249;27;20053;-64
2023/10/05 06:12:16;;;;;;;10.50;2.05;;;13.20;99.90;;;;;;5096936;27;20055;-63
2023/10/05 06:14:42;;;;;;;7.75;2.25;;;13.30;99.90;;;;;;5118046;27;20088;-63
2023/10/05 06:17:09;;;;;;;10.98;2.22;;;13.30;99.90;;;;;;5119106;27;20031;-64
2023/10/05 06:19:38;;;;;;;9.68;2.45;;;13.40;99.90;;;;;;5135744;27;20070;-64
2023/10/05 06:22:06;;;;;;;9.07;2.10;;;13.30;99.90;;;;;;5087793;27;20046;-63
2023/10/05 06:24:34;;;;;;;8.25;2.33;;;13.40;99.90;;;;;;5097028;27;20135;-64
2023/10/05 06:27:02;;;;;;;9.27;2.05;;;13.40;99.90;;;;;;5097481;27;20417;-64
2023/10/05 06:29:28;;;;;;;12.63;2.63;;;13.40;99.90;;;;;;5097489;27;20391;-64
2023/10/05 06:31:54;;;;;;;9.50;2.20;;;13.40;99.90;;;;;;5097116;27;20042;-64
2023/10/05 06:34:19;;;;;;;5.10;2.00;;;13.40;99.90;;;;;;5104741;27;20492;-64
2023/10/05 06:36:45;;;;;;;10.13;2.25;;;13.40;99.90;;;;;;5101555;27;20058;-64
2023/10/05 06:39:14;;;;;;;8.25;2.22;;;13.40;99.90;;;;;;5105054;27;20754;-65
2023/10/05 06:41:40;;;;;;;8.50;2.17;;;13.40;99.90;;;;;;5119009;27;20038;-63
2023/10/05 06:44:07;;;;;;;10.98;2.30;;;13.50;99.90;;;;;;5099242;27;20062;-64
2023/10/05 06:46:33;;;;;;;9.63;2.50;;;13.40;99.90;;;;;;5111002;27;20047;-64
2023/10/05 06:49:00;;;;;;;9.65;2.17;;;13.40;99.90;;;;;;5135855;27;20038;-65
2023/10/05 06:51:27;;;;;;;11.45;3.00;;;13.50;99.90;;;;;;5119419;27;20047;-64
2023/10/05 06:53:53;;;;;;;8.48;2.72;;;13.50;99.90;;;;;;5131949;27;20493;-63
2023/10/05 06:56:22;;;;;;;11.00;2.55;;;13.50;99.90;;;;;;5127306;27;20042;-63
2023/10/05 06:58:48;;;;;;;9.52;2.30;;;13.50;99.90;;;;;;5118758;27;20501;-63
2023/10/05 07:01:14;;;;;;;7.32;2.17;;;13.60;99.90;;;;;;5118619;27;20126;-64
2023/10/05 07:03:40;;;;;;;9.50;2.78;;;13.60;99.90;;;;;;5119350;27;20043;-64
2023/10/05 07:06:06;;;;;;;10.30;2.47;;;13.60;99.90;;;;;;5119781;27;20042;-64
2023/10/05 07:08:32;;;;;;;8.05;2.67;;;13.60;99.90;;;;;;5137563;27;20039;-64
2023/10/05 07:10:59;;;;;;;7.97;2.17;;;13.60;99.90;;;;;;5137606;27;20065;-65
2023/10/05 07:13:25;;;;;;;10.52;3.08;;;13.60;99.90;;;;;;5102432;27;20080;-65
2023/10/05 07:15:51;;;;;;;8.82;2.60;;;13.60;99.90;;;;;;5137640;27;20042;-64
2023/10/05 07:18:18;;;;;;;9.73;2.55;;;13.70;99.90;;;;;;5119353;27;20050;-62
2023/10/05 07:20:44;;;;;;;8.48;2.40;;;13.60;99.90;;;;;;5116728;27;20050;-65
2023/10/05 07:23:10;;;;;;;8.45;2.70;;;13.70;99.90;;;;;;5116422;27;20449;-64
2023/10/05 07:25:36;;;;;;;7.10;2.22;;;13.70;99.90;;;;;;5115985;27;20130;-64
2023/10/05 07:28:03;;;;;;;10.52;2.40;;;13.80;99.90;;;;;;5115878;27;20043;-64
2023/10/05 07:30:29;;;;;;;8.02;2.33;;;13.80;99.90;;;;;;5115715;27;20076;-64
2023/10/05 07:32:55;;;;;;;7.93;2.30;;;13.80;99.90;;;;;;5116269;27;20044;-63
2023/10/05 07:35:21;;;;;;;9.57;2.67;;;13.90;99.90;;;;;;5134275;27;20031;-63
2023/10/05 07:37:47;;;;;;;9.82;2.78;;;13.90;99.90;;;;;;5115873;27;20470;-63
2023/10/05 07:40:13;;;;;;;7.55;2.53;;;13.90;99.90;;;;;;5115727;27;20110;-63
2023/10/05 07:42:40;;;;;;;6.63;2.38;;;13.90;99.90;;;;;;5115716;27;20125;-65
2023/10/05 07:45:11;;;;;;;14.32;3.35;;;14.00;99.90;;;;;;5098699;27;20026;-65
2023/10/05 07:47:44;;;;;;;10.93;3.00;;;14.00;99.90;;;;;;5098537;27;20401;-64
2023/10/05 07:50:10;;;;;;;8.68;3.20;;;14.00;99.90;;;;;;5134148;27;20119;-64
2023/10/05 07:52:38;;;;;;;10.52;3.67;;;14.10;99.90;;;;;;5115703;27;20486;-64
2023/10/05 07:55:06;;;;;;;8.02;2.80;;;14.10;99.90;;;;;;5133909;27;20473;-64
2023/10/05 07:57:31;;;;;;;9.45;3.30;;;14.20;99.90;;;;;;5133646;27;20512;-63
2023/10/05 07:59:57;;;;;;;9.98;2.85;;;14.20;99.90;;;;;;5098259;27;20039;-64
2023/10/05 08:02:23;;;;;;;8.75;2.53;;;14.30;99.90;;;;;;5115229;27;20046;-64
2023/10/05 08:04:48;;;;;;;10.85;2.53;;;14.40;99.90;;;;;;5133375;27;20131;-63
2023/10/05 08:07:15;;;;;;;9.98;3.10;;;14.40;99.90;;;;;;5115486;27;20072;-62
2023/10/05 08:09:43;;;;;;;12.27;3.15;;;14.50;99.90;;;;;;5133502;27;20405;-63
2023/10/05 08:12:11;;;;;;;11.52;3.33;;;14.50;99.90;;;;;;5114974;27;20130;-63
2023/10/05 08:14:37;;;;;;;12.55;3.40;;;14.60;99.90;;;;;;5133478;27;20627;-63
2023/10/05 08:17:03;;;;;;;8.35;3.03;;;14.60;99.90;;;;;;5114924;27;20043;-65
2023/10/05 08:19:29;;;;;;;13.23;3.30;;;14.60;99.90;;;;;;5115502;27;20043;-64
2023/10/05 08:21:55;;;;;;;12.50;3.28;;;14.70;99.90;;;;;;5114676;27;20035;-63
2023/10/05 08:24:23;;;;;;;14.18;2.97;;;14.70;99.90;;;;;;5097911;27;20031;-64
2023/10/05 08:26:49;;;;;;;9.23;2.63;;;14.70;99.90;;;;;;5114901;27;20039;-65
2023/10/05 08:29:17;;;;;;;8.50;3.45;;;14.80;99.90;;;;;;5114725;27;20031;-64
2023/10/05 08:31:44;;;;;;;12.05;2.78;;;14.80;99.90;;;;;;5096865;28;20078;-63
2023/10/05 08:34:22;;;;;;;8.93;2.80;;;14.90;99.90;;;;;;5114852;27;20074;-65
2023/10/05 08:36:49;;;;;;;7.80;2.85;;;15.00;99.90;;;;;;5097236;27;20459;-64
2023/10/05 08:39:23;;;;;;;9.75;2.60;;;15.00;99.90;;;;;;5133039;27;20051;-63
2023/10/05 08:41:48;;;;;;;8.95;2.45;;;15.10;99.90;;;;;;5114746;27;20386;-64
2023/10/05 08:44:48;;;;;;;9.63;2.70;;;15.20;99.90;;;;;;5114629;27;20054;-63
2023/10/05 08:47:10;;;;;;;11.93;3.03;;;15.30;99.90;;;;;;5127694;27;20043;-63
2023/10/05 08:49:36;;;;;;;10.32;2.65;;;15.40;99.90;;;;;;5114405;27;20047;-64
2023/10/05 08:52:13;;;;;;;8.90;3.08;;;15.50;99.90;;;;;;5114234;27;20096;-63
2023/10/05 08:54:39;;;;;;;11.43;3.25;;;15.50;99.90;;;;;;5114212;27;20043;-64
2023/10/05 08:57:14;;;;;;;10.27;2.75;;;15.50;99.90;;;;;;5114152;27;20078;-63
2023/10/05 08:59:45;;;;;;;12.63;2.67;;;15.60;99.90;;;;;;5097215;27;20047;-64
2023/10/05 09:02:11;;;;;;;8.20;2.42;;;15.70;99.90;;;;;;5114197;27;20042;-65
2023/10/05 09:04:43;;;;;;;10.50;2.80;;;15.80;99.90;;;;;;5114364;27;20142;-64
2023/10/05 09:07:37;;;;;;;8.65;2.60;;;15.90;99.90;;;;;;5113763;27;20039;-64
2023/10/05 09:10:14;;;;;;;9.60;2.78;;;15.90;99.90;;;;;;5114047;27;20070;-65
2023/10/05 09:12:46;;;;;;;14.35;3.05;;;15.90;99.90;;;;;;5114359;27;20557;-64
2023/10/05 09:15:28;;;;;;;8.98;2.60;;;16.00;99.90;;;;;;5096689;27;20039;-63
2023/10/05 09:20:38;;;;;;;10.80;2.47;;;16.10;99.90;;;;;;5113636;27;20059;-65
2023/10/05 09:23:11;;;;;;;9.30;2.10;;;16.10;99.90;;;;;;5096749;27;20043;-63
2023/10/05 09:25:39;;;;;;;10.20;2.28;;;16.10;99.90;;;;;;5132313;27;20043;-64
2023/10/05 09:28:16;;;;;;;8.05;2.42;;;16.10;99.90;;;;;;5113554;27;20047;-64
2023/10/05 09:31:11;;;;;;;11.60;2.63;;;16.00;99.90;;;;;;5113835;27;20056;-64
2023/10/05 09:33:47;;;;;;;10.32;2.35;;;16.00;99.90;;;;;;5031866;28;20063;-64
2023/10/05 09:36:20;;;;;;;9.13;2.50;;;16.00;99.90;;;;;;5031594;28;20128;-63
2023/10/05 09:38:46;;;;;;;8.57;2.70;;;16.00;99.90;;;;;;5048698;28;20044;-64
2023/10/05 09:41:20;;;;;;;10.23;2.75;;;15.90;99.90;;;;;;5031575;28;20051;-64
2023/10/05 09:43:58;;;;;;;11.88;3.33;;;15.90;99.90;;;;;;5031523;28;20049;-64
2023/10/05 09:46:27;;;;;;;11.60;2.75;;;15.80;99.90;;;;;;5031523;28;20044;-65
2023/10/05 09:48:53;;;;;;;10.68;2.47;;;15.80;99.90;;;;;;5048177;28;20048;-63
2023/10/05 09:51:19;;;;;;;9.73;2.70;;;15.80;99.90;;;;;;5048316;28;20420;-64
2023/10/05 09:53:51;;;;;;;10.07;2.70;;;15.80;99.90;;;;;;5028473;28;20044;-64
2023/10/05 09:56:19;;;;;;;8.50;2.30;;;15.70;99.90;;;;;;5031447;28;20060;-64
2023/10/05 09:58:46;;;;;;;10.35;2.50;;;15.70;99.90;;;;;;5032058;28;20412;-63
2023/10/05 10:01:14;;;;;;;11.60;2.53;;;15.70;99.90;;;;;;5031186;28;20052;-64
2023/10/05 10:03:45;;;;;;;11.30;2.80;;;15.70;99.90;;;;;;5048221;28;20102;-64
2023/10/05 10:06:13;;;;;;;9.27;2.75;;;15.80;99.90;;;;;;5031229;28;20044;-64
2023/10/05 10:09:11;;;;;;;10.70;3.60;;;15.80;99.90;;;;;;5048021;28;20041;-64
2023/10/05 10:11:36;;;;;;;11.00;2.55;;;15.90;99.90;;;;;;5112430;28;20051;-63
2023/10/05 10:14:06;;;;;;;10.35;3.05;;;16.00;99.90;;;;;;5112974;28;20043;-65
2023/10/05 10:16:39;;;;;;;11.52;2.80;;;16.10;99.90;;;;;;5131403;28;20039;-64
2023/10/05 10:19:08;;;;;;;10.27;2.78;;;16.20;99.90;;;;;;5112705;28;20111;-63
2023/10/05 10:21:41;;;;;;;9.18;2.50;;;16.30;99.90;;;;;;5113273;28;20477;-64
2023/10/05 10:24:12;;;;;;;13.70;3.47;;;16.50;99.90;;;;;;5131161;28;20085;-64
2023/10/05 10:26:59;;;;;;;12.55;3.42;;;16.50;99.90;;;;;;5113029;28;20565;-64
2023/10/05 10:29:39;;;;;;;10.82;2.80;;;16.60;99.90;;;;;;5131288;28;20031;-64
2023/10/05 10:32:22;;;;;;;8.77;2.60;;;16.60;99.90;;;;;;5112836;28;20039;-63
2023/10/05 10:34:55;;;;;;;9.65;2.88;;;16.80;99.90;;;;;;5131610;28;20139;-64
2023/10/05 10:37:40;;;;;;;12.88;3.28;;;17.00;99.90;;;;;;5112924;28;20501;-64
2023/10/05 10:45:32;;;;;;;12.52;3.05;;;17.20;99.90;;;;;;5112907;28;20051;-63
2023/10/05 10:47:58;;;;;;;9.25;2.90;;;17.70;99.90;;;;;;5131262;28;20035;-64
2023/10/05 10:50:29;;;;;;;9.77;2.60;;;18.00;99.90;;;;;;5112516;28;20031;-63
2023/10/05 10:52:56;;;;;;;10.15;2.78;;;18.10;99.90;;;;;;5131130;28;20367;-63
2023/10/05 10:55:32;;;;;;;10.85;2.50;;;17.90;99.90;;;;;;5112980;27;20539;-64
2023/10/05 10:57:59;;;;;;;16.85;3.10;;;17.90;99.90;;;;;;5116623;27;20039;-64
2023/10/05 11:03:11;;;;;;;14.45;3.33;;;17.80;99.90;;;;;;5116673;27;20122;-64
2023/10/05 11:05:54;;;;;;;11.85;2.65;;;17.70;99.90;;;;;;5116491;27;20081;-63
2023/10/05 11:08:20;;;;;;;12.00;2.60;;;17.60;99.90;;;;;;5134948;27;20062;-63
2023/10/05 11:11:15;;;;;;;15.60;2.75;;;17.60;99.90;;;;;;5116178;27;20378;-64
2023/10/05 11:13:56;;;;;;;9.25;2.55;;;17.60;99.90;;;;;;5116285;27;20047;-64
2023/10/05 11:16:45;;;;;;;8.45;2.33;;;17.80;99.90;;;;;;5134510;27;20067;-63
2023/10/05 11:19:13;;;;;;;7.60;2.13;;;17.90;99.90;;;;;;5116168;27;20042;-65
2023/10/05 11:21:46;;;;;;;9.32;2.10;;;18.10;99.90;;;;;;5116357;27;20108;-63
2023/10/05 11:24:16;;;;;;;;;;;18.20;99.90;;;;;;5116574;27;20047;-64
2023/10/05 11:29:28;;;;;;;10.00;2.42;;;17.90;99.90;;;;;;5116450;27;20486;-64
2023/10/05 11:32:01;;;;;;;11.35;2.45;;;17.80;99.90;;;;;;5134303;27;20038;-63
2023/10/05 11:34:38;;;;;;;11.30;2.13;;;18.10;99.90;;;;;;5115986;27;20394;-64
2023/10/05 11:37:15;;;;;;;7.15;2.17;;;18.20;99.90;;;;;;5134195;27;20100;-64
2023/10/05 11:39:41;;;;;;;10.10;2.20;;;18.20;99.90;;;;;;5098707;27;20042;-64
2023/10/05 11:42:10;;;;;;;9.63;2.20;;;18.00;99.90;;;;;;5097925;27;20063;-63
2023/10/05 11:44:38;;;;;;;6.60;2.05;;;17.70;99.90;;;;;;5115478;27;20047;-64
2023/10/05 11:47:07;;;;;;;9.88;2.13;;;17.50;99.90;;;;;;5115642;27;20043;-63
2023/10/05 11:49:33;;;;;;;7.53;2.15;;;17.40;99.90;;;;;;5115593;27;20054;-64
2023/10/05 11:52:00;;;;;;;8.85;2.30;;;17.30;99.90;;;;;;5115888;27;20062;-65
2023/10/05 11:54:31;;;;;;;7.95;2.30;;;17.20;99.90;;;;;;5115247;27;20034;-64
2023/10/05 11:56:59;;;;;;;9.93;2.47;;;17.20;99.90;;;;;;5115392;27;20084;-64
2023/10/05 11:59:29;;;;;;;7.40;1.88;;;17.20;99.90;;;;;;5115211;27;20050;-65
2023/10/05 12:01:55;;;;;;;7.22;2.17;;;17.30;99.90;;;;;;5115464;27;20034;-64
2023/10/05 12:04:23;;;;;;;6.82;1.88;;;17.40;99.90;;;;;;5115532;27;20031;-63
2023/10/05 12:06:58;;;;;;;14.35;3.47;;;17.60;99.90;;;;;;5115046;27;20160;-65
2023/10/05 12:09:30;;;;;;;8.32;2.10;;;17.60;99.90;;;;;;5115616;27;20419;-64
2023/10/05 12:11:58;;;;;;;9.23;2.75;;;17.70;99.90;;;;;;5115111;27;20047;-64
2023/10/05 12:14:25;;;;;;;5.68;1.83;;;17.60;99.90;;;;;;5133763;27;20043;-63
2023/10/05 12:16:57;;;;;;;11.18;2.03;;;17.50;99.90;;;;;;5114789;27;20046;-64
2023/10/05 12:19:30;;;;;;;7.93;1.75;;;17.60;99.90;;;;;;5115142;27;20050;-65
2023/10/05 12:21:59;;;;;;;8.65;2.20;;;17.60;99.90;;;;;;5115236;27;20497;-65
2023/10/05 12:24:26;;;;;;;9.95;2.40;;;17.60;99.90;;;;;;5115158;27;20035;-63
2023/10/05 12:26:53;;;;;;;8.80;2.58;;;17.60;99.90;;;;;;5133230;27;20047;-64
2023/10/05 12:29:18;;;;;;;8.90;3.13;;;17.50;99.90;;;;;;5097573;27;20039;-63
2023/10/05 12:31:46;;;;;;;7.80;2.42;;;17.60;99.90;;;;;;5133047;27;20035;-64
2023/10/05 12:34:15;;;;;;;7.18;2.08;;;17.60;99.90;;;;;;5114562;27;20035;-64
2023/10/05 12:36:49;;;;;;;8.18;2.22;;;17.70;99.90;;;;;;5114669;27;20118;-64
2023/10/05 12:39:17;;;;;;;11.18;2.45;;;17.60;99.90;;;;;;5133102;27;20073;-65
2023/10/05 12:41:43;;;;;;;8.82;2.13;;;17.70;99.90;;;;;;5114221;27;20047;-64
2023/10/05 12:44:13;;;;;;;8.20;2.00;;;17.60;99.90;;;;;;5132600;27;20023;-64
2023/10/05 12:46:45;;;;;;;8.55;2.30;;;17.60;99.90;;;;;;5114343;27;20079;-65
2023/10/05 12:49:15;;;;;;;10.68;1.98;;;17.50;99.90;;;;;;5114217;27;20035;-65
2023/10/05 12:51:47;;;;;;;5.88;1.88;;;17.50;99.90;;;;;;5114406;27;20035;-65
2023/10/05 12:54:19;;;;;;;13.10;3.60;;;17.60;99.90;;;;;;5114442;27;20149;-64
2023/10/05 12:56:53;;;;;;;9.07;2.75;;;17.70;99.90;;;;;;5132787;27;20501;-65
2023/10/05 12:59:19;;;;;;;9.82;2.50;;;17.60;99.90;;;;;;5114403;27;20118;-64
2023/10/05 13:01:46;;;;;;;12.95;2.30;;;17.60;99.90;;;;;;5132576;27;20091;-65
2023/10/05 13:04:13;;;;;;;11.00;2.88;;;17.70;99.90;;;;;;5113526;27;20039;-63
2023/10/05 13:06:40;;;;;;;10.27;2.17;;;17.70;99.90;;;;;;5113945;27;20035;-64
2023/10/05 13:09:11;;;;;;;10.25;2.20;;;17.70;99.90;;;;;;5113864;27;20031;-63
2023/10/05 13:11:39;;;;;;;7.85;2.67;;;17.70;99.90;;;;;;5114139;27;20494;-64
2023/10/05 13:14:08;;;;;;;9.38;2.42;;;17.70;99.90;;;;;;5113806;27;20110;-63
2023/10/05 13:16:38;;;;;;;7.13;2.22;;;17.80;99.90;;;;;;5132313;27;20114;-63
2023/10/05 13:19:08;;;;;;;8.27;2.45;;;17.90;99.90;;;;;;5113340;27;20039;-64
2023/10/05 13:21:35;;;;;;;9.07;2.40;;;18.10;99.90;;;;;;5096832;27;20039;-63
2023/10/05 13:24:02;;;;;;;9.48;2.10;;;18.20;99.90;;;;;;5132399;27;20031;-64
2023/10/05 13:26:29;;;;;;;9.25;1.90;;;18.30;99.90;;;;;;5114127;27;20393;-65
2023/10/05 13:28:59;;;;;;;8.85;1.83;;;18.40;99.90;;;;;;5113966;27;20035;-64
2023/10/05 13:31:27;;;;;;;7.47;2.58;;;18.50;99.90;;;;;;5113737;27;20042;-65
2023/10/05 13:33:59;;;;;;;8.23;2.00;;;18.60;99.90;;;;;;5096505;27;20431;-64